This is the latest recevied weather packets stored in our database for station/object F5LKO-13. If no packets are shown the sender has not sent any weather packets the latest 10 day(s).
| Time | Temp. | Humidity | Pressure | Rain* | Wind** | Luminosity | Snow |
|---|---|---|---|---|---|---|---|
| 1777807469 | 24.44° C | 99% | 1014.4 hPa | 0 mm | - | 45 W/m² | - |
| 1777807154 | 24.44° C | 99% | 1014.5 hPa | 0 mm | - | 93 W/m² | - |
| 1777806848 | 23.89° C | 99% | 1014.6 hPa | 0 mm | - | 86 W/m² | - |
| 1777806543 | 23.33° C | 99% | 1014.6 hPa | 0 mm | - | 61 W/m² | - |
| 1777806237 | 21.67° C | 99% | 1014.7 hPa | 0 mm | - | 30 W/m² | - |
| 1777805931 | 22.22° C | 99% | 1014.8 hPa | 0 mm | - | 14 W/m² | - |
| 1777805636 | 22.78° C | 99% | 1014.7 hPa | 0 mm | - | 13 W/m² | - |
| 1777805321 | 23.33° C | 99% | 1014.7 hPa | 0 mm | - | 49 W/m² | - |
| 1777805015 | 23.89° C | 99% | 1014.8 hPa | 0 mm | - | 61 W/m² | - |
| 1777804709 | 22.78° C | 99% | 1014.7 hPa | 0 mm | - | 37 W/m² | - |
| 1777804403 | 22.78° C | 99% | 1014.9 hPa | 0 mm | - | 16 W/m² | - |
| 1777804097 | 23.33° C | 99% | 1014.9 hPa | 0 mm | - | 29 W/m² | - |
| 1777803800 | 23.89° C | 99% | 1014.9 hPa | 0 mm | - | 54 W/m² | - |
| 1777803485 | 22.78° C | 99% | 1015 hPa | 0 mm | - | 48 W/m² | - |
| 1777803179 | 22.78° C | 99% | 1015 hPa | 0 mm | - | 18 W/m² | - |
| 1777802873 | 23.33° C | 99% | 1015.1 hPa | 0 mm | - | 14 W/m² | - |
| 1777802567 | 23.33° C | 99% | 1015.1 hPa | 0 mm | - | 12 W/m² | - |
| 1777802260 | 23.33° C | 99% | 1015.1 hPa | 0 mm | - | 24 W/m² | - |
| 1777801963 | 24.44° C | 99% | 1015.1 hPa | 0 mm | - | 29 W/m² | - |
| 1777801648 | 23.33° C | 99% | 1015.1 hPa | 0 mm | - | 7 W/m² | - |
| 1777801342 | 23.33° C | 99% | 1015.1 hPa | 0 mm | - | 28 W/m² | - |
| 1777801036 | 23.33° C | 99% | 1015.1 hPa | 0 mm | - | 28 W/m² | - |
| 1777800730 | 22.78° C | 99% | 1015.1 hPa | 0 mm | - | 18 W/m² | - |
| 1777800424 | 22.78° C | 99% | 1015.1 hPa | 0 mm | - | 14 W/m² | - |
| 1777800127 | 21.67° C | 99% | 1015.1 hPa | 0 mm | - | 14 W/m² | - |
* Rain latest hour (hover to see other rain measurements)
** Current wind speed in m/s (hover to see current wind gust speed)